createdAt,value
2022-12-05T00:02:11.689Z,102557.59
2022-12-05T00:04:40.353Z,102560.25
2022-12-05T00:07:07.549Z,102558.53
2022-12-05T00:09:36.507Z,102559.44
2022-12-05T00:12:04.043Z,102542.75
2022-12-05T00:14:31.432Z,102545.41
2022-12-05T00:16:59.103Z,102543.69
2022-12-05T00:19:27.454Z,102548.09
2022-12-05T00:21:54.624Z,102544.63
2022-12-05T00:24:22.302Z,102545.53
2022-12-05T00:26:50.201Z,102539.53
2022-12-05T00:29:17.434Z,102554.31
2022-12-05T00:31:46.983Z,102561.44
2022-12-05T00:34:15.222Z,102544.88
2022-12-05T00:36:42.247Z,102567.63
2022-12-05T00:39:14.745Z,102553.72
2022-12-05T00:41:43.165Z,102565.00
2022-12-05T00:44:12.350Z,102562.34
2022-12-05T00:46:39.944Z,102548.50
2022-12-05T00:49:07.799Z,102557.13
2022-12-05T00:51:39.477Z,102563.31
2022-12-05T00:54:09.519Z,102568.63
2022-12-05T00:56:44.824Z,102564.28
2022-12-05T00:59:19.223Z,102574.81
2022-12-05T01:01:49.762Z,102580.13
2022-12-05T01:04:23.301Z,102575.91
2022-12-05T01:06:54.053Z,102577.50
2022-12-05T01:09:22.451Z,102564.50
2022-12-05T01:11:52.480Z,102576.78
2022-12-05T01:14:22.840Z,102584.69
2022-12-05T01:16:55.921Z,102582.94
2022-12-05T01:19:28.974Z,102589.09
2022-12-05T01:21:56.984Z,102589.16
2022-12-05T01:24:25.196Z,102573.41
2022-12-05T01:26:53.503Z,102586.47
2022-12-05T01:29:22.361Z,102576.06
2022-12-05T01:31:51.881Z,102590.84
2022-12-05T01:34:19.829Z,102591.72
2022-12-05T01:36:47.823Z,102597.03
2022-12-05T01:39:17.978Z,102597.94
2022-12-05T01:41:50.764Z,102578.72
2022-12-05T01:44:22.293Z,102589.09
2022-12-05T01:46:51.572Z,102575.13
2022-12-05T01:49:28.033Z,102582.22
2022-12-05T01:52:23.687Z,102591.03
2022-12-05T01:54:55.495Z,102596.19
2022-12-05T01:57:24.784Z,102594.47
2022-12-05T01:59:56.172Z,102592.72
2022-12-05T02:02:23.776Z,102578.78
2022-12-05T02:05:20.499Z,102594.47
2022-12-05T02:07:48.148Z,102597.13
2022-12-05T02:10:20.439Z,102598.19
2022-12-05T02:12:47.699Z,102602.63
2022-12-05T02:16:00.223Z,102604.50
2022-12-05T02:18:32.848Z,102610.75
2022-12-05T02:21:14.454Z,102607.28
2022-12-05T02:23:53.149Z,102616.13
2022-12-05T02:26:41.697Z,102615.34
2022-12-05T02:29:30.750Z,102603.16
2022-12-05T02:32:20.597Z,102611.13
2022-12-05T02:35:20.057Z,102614.50
2022-12-05T02:37:59.665Z,102603.25
2022-12-05T02:40:44.928Z,102607.56
2022-12-05T02:43:35.512Z,102609.31
2022-12-05T02:46:09.966Z,102596.31
2022-12-05T02:48:39.586Z,102610.28
2022-12-05T02:51:09.473Z,102612.06
2022-12-05T02:53:38.457Z,102617.34
2022-12-05T02:56:07.948Z,102615.63
2022-12-05T02:58:49.125Z,102595.53
2022-12-05T03:01:16.694Z,102610.34
2022-12-05T03:03:44.988Z,102620.94
2022-12-05T03:06:20.166Z,102621.81
2022-12-05T03:08:53.987Z,102613.03
2022-12-05T03:11:20.974Z,102614.78
2022-12-05T03:13:56.451Z,102616.59
2022-12-05T03:16:38.867Z,102610.44
2022-12-05T03:19:18.135Z,102601.69
2022-12-05T03:21:52.008Z,102609.59
2022-12-05T03:24:19.128Z,102609.59
2022-12-05T03:27:08.386Z,102606.97
2022-12-05T03:29:57.422Z,102605.25
2022-12-05T03:32:46.230Z,102618.44
2022-12-05T03:35:16.641Z,102612.28
2022-12-05T03:38:07.322Z,102611.44
2022-12-05T03:41:08.153Z,102612.34
2022-12-05T03:43:52.681Z,102609.75
2022-12-05T03:46:31.508Z,102620.28
2022-12-05T03:49:11.411Z,102604.59
2022-12-05T03:51:48.937Z,102617.66
2022-12-05T03:54:25.499Z,102627.34
2022-12-05T03:57:17.406Z,102620.31
2022-12-05T03:59:59.594Z,102623.88
2022-12-05T04:02:45.849Z,102632.69
2022-12-05T04:05:30.713Z,102634.41
2022-12-05T04:08:04.988Z,102635.31
2022-12-05T04:10:48.833Z,102619.63
2022-12-05T04:13:42.145Z,102639.75
2022-12-05T04:16:33.760Z,102626.72
2022-12-05T04:19:09.347Z,102633.72
2022-12-05T04:21:42.996Z,102642.44
2022-12-05T04:24:35.471Z,102631.13
2022-12-05T04:27:12.721Z,102646.81
2022-12-05T04:29:51.074Z,102652.09
2022-12-05T04:32:19.979Z,102635.56
2022-12-05T04:34:55.681Z,102645.06
2022-12-05T04:37:26.502Z,102652.09
2022-12-05T04:40:04.330Z,102659.16
2022-12-05T04:42:35.701Z,102667.09
2022-12-05T04:45:10.682Z,102673.19
2022-12-05T04:47:47.191Z,102671.47
2022-12-05T04:50:16.694Z,102681.13
2022-12-05T04:52:48.103Z,102677.63
2022-12-05T04:55:26.116Z,102661.97
2022-12-05T04:58:04.990Z,102679.38
2022-12-05T05:00:39.116Z,102676.78
2022-12-05T05:03:36.577Z,102677.66
2022-12-05T05:06:04.371Z,102678.53
2022-12-05T05:08:31.228Z,102682.94
2022-12-05T05:11:16.596Z,102678.56
2022-12-05T05:13:43.582Z,102684.72
2022-12-05T05:16:18.414Z,102685.56
2022-12-05T05:18:50.062Z,102684.69
2022-12-05T05:21:21.714Z,102676.03
2022-12-05T05:23:48.922Z,102688.22
2022-12-05T05:26:16.508Z,102683.84
2022-12-05T05:28:43.774Z,102694.41
2022-12-05T05:31:11.138Z,102689.13
2022-12-05T05:33:38.211Z,102691.75
2022-12-05T05:36:07.312Z,102697.03
2022-12-05T05:38:45.093Z,102697.03
2022-12-05T05:41:17.018Z,102702.31
2022-12-05T05:43:45.210Z,102704.09
2022-12-05T05:46:13.000Z,102701.47
2022-12-05T05:48:40.483Z,102695.44
2022-12-05T05:51:10.213Z,102698.06
2022-12-05T05:53:37.417Z,102721.63
2022-12-05T05:56:06.144Z,102718.03
2022-12-05T05:58:33.067Z,102714.41
2022-12-05T06:01:09.784Z,102725.81
2022-12-05T06:03:37.293Z,102721.38
2022-12-05T06:06:10.256Z,102719.81
2022-12-05T06:08:39.203Z,102723.47
2022-12-05T06:11:27.103Z,102723.50
2022-12-05T06:13:58.576Z,102713.97
2022-12-05T06:16:25.370Z,102721.72
2022-12-05T06:18:53.062Z,102724.31
2022-12-05T06:21:20.938Z,102710.28
2022-12-05T06:23:48.513Z,102721.56
2022-12-05T06:26:21.590Z,102717.16
2022-12-05T06:28:48.704Z,102716.28
2022-12-05T06:31:19.265Z,102711.06
2022-12-05T06:33:46.676Z,102722.44
2022-12-05T06:36:15.972Z,102701.47
2022-12-05T06:38:43.243Z,102711.00
2022-12-05T06:41:16.779Z,102724.16
2022-12-05T06:43:44.181Z,102707.50
2022-12-05T06:46:13.708Z,102721.38
2022-12-05T06:48:40.884Z,102710.88
2022-12-05T06:51:11.336Z,102737.06
2022-12-05T06:53:39.856Z,102723.09
2022-12-05T06:56:14.102Z,102719.53
2022-12-05T06:58:46.012Z,102740.50
2022-12-05T07:01:33.107Z,102729.16
2022-12-05T07:04:00.494Z,102747.47
2022-12-05T07:06:28.136Z,102738.75
2022-12-05T07:08:55.097Z,102752.69
2022-12-05T07:11:22.228Z,102750.91
2022-12-05T07:13:49.512Z,102754.41
2022-12-05T07:16:16.639Z,102749.09
2022-12-05T07:18:43.671Z,102751.72
2022-12-05T07:21:14.323Z,102750.81
2022-12-05T07:23:43.349Z,102750.81
2022-12-05T07:26:13.468Z,102745.50
2022-12-05T07:28:40.611Z,102729.75
2022-12-05T07:31:11.295Z,102742.91
2022-12-05T07:33:38.742Z,102728.34
2022-12-05T07:36:14.569Z,102739.72
2022-12-05T07:38:43.211Z,102748.66
2022-12-05T07:41:16.420Z,102743.53
2022-12-05T07:43:43.509Z,102759.28
2022-12-05T07:46:13.631Z,102754.97
2022-12-05T07:48:41.266Z,102769.94
2022-12-05T07:51:10.099Z,102771.72
2022-12-05T07:53:38.817Z,102777.91
2022-12-05T07:56:08.476Z,102780.56
2022-12-05T07:58:36.406Z,102782.31
2022-12-05T08:01:09.137Z,102782.31
2022-12-05T08:03:40.161Z,102776.28
2022-12-05T08:06:12.876Z,102791.19
2022-12-05T08:08:40.430Z,102789.44
2022-12-05T08:11:11.161Z,102793.91
2022-12-05T08:13:38.709Z,102795.59
2022-12-05T08:16:08.858Z,102796.44
2022-12-05T08:18:35.865Z,102790.25
2022-12-05T08:21:09.562Z,102784.19
2022-12-05T08:23:37.672Z,102791.16
2022-12-05T08:26:06.852Z,102795.56
2022-12-05T08:28:34.558Z,102798.16
2022-12-05T08:31:10.949Z,102794.66
2022-12-05T08:33:38.585Z,102797.25
2022-12-05T08:36:07.886Z,102803.41
2022-12-05T08:38:35.933Z,102805.16
2022-12-05T08:41:10.767Z,102797.28
2022-12-05T08:43:37.965Z,102799.94
2022-12-05T08:46:06.071Z,102801.72
2022-12-05T08:48:34.734Z,102794.69
2022-12-05T08:51:07.542Z,102785.13
2022-12-05T08:53:40.958Z,102799.94
2022-12-05T08:56:11.579Z,102804.34
2022-12-05T08:58:39.527Z,102782.47
2022-12-05T09:01:12.548Z,102788.59
2022-12-05T09:03:47.355Z,102780.72
2022-12-05T09:06:23.656Z,102787.72
2022-12-05T09:08:56.374Z,102800.88
2022-12-05T09:11:27.274Z,102788.66
2022-12-05T09:13:56.525Z,102784.28
2022-12-05T09:16:37.053Z,102803.53
2022-12-05T09:19:05.036Z,102811.50
2022-12-05T09:21:33.357Z,102796.56
2022-12-05T09:24:01.262Z,102807.91
2022-12-05T09:26:30.842Z,102809.66
2022-12-05T09:28:59.264Z,102810.47
2022-12-05T09:31:27.899Z,102803.44
2022-12-05T09:33:56.710Z,102812.13
2022-12-05T09:36:30.204Z,102811.19
2022-12-05T09:39:02.573Z,102818.19
2022-12-05T09:42:10.276Z,102816.44
2022-12-05T09:44:59.297Z,102807.63
2022-12-05T09:47:45.548Z,102816.41
2022-12-05T09:50:18.893Z,102816.41
2022-12-05T09:53:00.523Z,102815.53
2022-12-05T09:55:37.002Z,102824.34
2022-12-05T09:58:12.422Z,102826.94
2022-12-05T10:00:41.098Z,102798.97
2022-12-05T10:03:35.338Z,102822.66
2022-12-05T10:06:22.473Z,102808.75
2022-12-05T10:09:09.401Z,102828.88
2022-12-05T10:11:55.573Z,102821.09
2022-12-05T10:14:59.134Z,102834.22
2022-12-05T10:17:36.891Z,102830.69
2022-12-05T10:20:15.932Z,102837.72
2022-12-05T10:22:48.890Z,102833.38
2022-12-05T10:25:21.338Z,102813.22
2022-12-05T10:28:01.108Z,102818.50
2022-12-05T10:30:32.932Z,102834.28
2022-12-05T10:33:09.312Z,102830.69
2022-12-05T10:35:40.333Z,102835.13
2022-12-05T10:38:17.071Z,102842.13
2022-12-05T10:40:49.300Z,102834.22
2022-12-05T10:43:29.553Z,102829.78
2022-12-05T10:45:58.670Z,102837.72
2022-12-05T10:48:27.360Z,102831.63
2022-12-05T10:50:57.671Z,102827.22
2022-12-05T10:53:41.856Z,102825.50
2022-12-05T10:56:44.890Z,102826.44
2022-12-05T10:59:21.673Z,102830.84
2022-12-05T11:01:52.168Z,102815.13
2022-12-05T11:04:28.908Z,102807.25
2022-12-05T11:07:02.195Z,102825.66
2022-12-05T11:09:33.813Z,102810.75
2022-12-05T11:12:09.844Z,102823.00
2022-12-05T11:14:37.418Z,102817.75
2022-12-05T11:17:06.493Z,102815.97
2022-12-05T11:19:37.646Z,102815.03
2022-12-05T11:22:08.527Z,102814.16
2022-12-05T11:24:39.443Z,102815.91
2022-12-05T11:27:19.329Z,102776.53
2022-12-05T11:29:54.675Z,102806.19
2022-12-05T11:32:25.762Z,102786.19
2022-12-05T11:35:02.747Z,102806.97
2022-12-05T11:37:45.458Z,102819.13
2022-12-05T11:40:21.626Z,102811.94
2022-12-05T11:43:29.085Z,102811.03
2022-12-05T11:46:02.414Z,102813.63
2022-12-05T11:48:58.590Z,102804.75
2022-12-05T11:51:26.601Z,102807.28
2022-12-05T11:54:08.735Z,102814.22
2022-12-05T11:56:48.806Z,102798.44
2022-12-05T11:59:33.351Z,102813.22
2022-12-05T12:02:16.415Z,102799.19
2022-12-05T12:05:08.133Z,102805.19
2022-12-05T12:07:51.336Z,102811.34
2022-12-05T12:10:55.407Z,102810.50
2022-12-05T12:13:54.553Z,102811.41
2022-12-05T12:16:28.280Z,102805.25
2022-12-05T12:19:29.207Z,102806.97
2022-12-05T12:21:59.553Z,102809.41
2022-12-05T12:24:54.404Z,102803.09
2022-12-05T12:27:30.269Z,102810.19
2022-12-05T12:30:18.591Z,102807.56
2022-12-05T12:33:06.584Z,102793.56
2022-12-05T12:35:45.983Z,102799.53
2022-12-05T12:38:51.552Z,102793.41
2022-12-05T12:41:35.751Z,102798.72
2022-12-05T12:44:38.076Z,102797.88
2022-12-05T12:47:18.470Z,102797.00
2022-12-05T12:50:25.806Z,102804.88
2022-12-05T12:53:30.832Z,102805.81
2022-12-05T12:56:16.170Z,102803.25
2022-12-05T12:59:25.902Z,102805.81
2022-12-05T13:02:12.832Z,102794.44
2022-12-05T13:05:09.081Z,102811.09
2022-12-05T13:07:50.989Z,102818.09
2022-12-05T13:10:35.239Z,102820.66
2022-12-05T13:13:06.019Z,102823.31
2022-12-05T13:15:41.836Z,102816.28
2022-12-05T13:18:17.384Z,102816.22
2022-12-05T13:20:46.780Z,102816.22
2022-12-05T13:23:18.480Z,102817.09
2022-12-05T13:25:48.524Z,102815.38
2022-12-05T13:28:32.783Z,102799.59
2022-12-05T13:31:04.689Z,102810.97
2022-12-05T13:33:46.880Z,102807.47
2022-12-05T13:36:40.094Z,102801.31
2022-12-05T13:39:32.154Z,102791.69
2022-12-05T13:42:15.991Z,102807.44
2022-12-05T13:44:45.222Z,102795.09
2022-12-05T13:47:40.367Z,102795.94
2022-12-05T13:50:15.967Z,102788.06
2022-12-05T13:52:52.566Z,102784.53
2022-12-05T13:55:40.627Z,102788.03
2022-12-05T13:58:31.342Z,102773.16
2022-12-05T14:01:40.751Z,102785.34
2022-12-05T14:04:42.209Z,102784.47
2022-12-05T14:07:11.453Z,102786.22
2022-12-05T14:09:55.491Z,102781.59
2022-12-05T14:12:22.985Z,102788.59
2022-12-05T14:14:57.097Z,102790.44
2022-12-05T14:17:44.620Z,102794.88
2022-12-05T14:20:49.414Z,102789.63
2022-12-05T14:23:25.509Z,102788.72
2022-12-05T14:26:17.317Z,102793.91
2022-12-05T14:29:10.588Z,102790.44
2022-12-05T14:32:04.480Z,102786.69
2022-12-05T14:34:34.434Z,102771.91
2022-12-05T14:37:19.868Z,102792.00
2022-12-05T14:39:52.089Z,102792.06
2022-12-05T14:42:39.791Z,102784.78
2022-12-05T14:45:37.078Z,102778.31
2022-12-05T14:48:48.579Z,102780.91
2022-12-05T14:51:30.816Z,102759.88
2022-12-05T14:54:03.811Z,102772.09
2022-12-05T14:56:34.251Z,102778.22
2022-12-05T14:59:05.876Z,102765.09
2022-12-05T15:01:51.312Z,102779.03
2022-12-05T15:04:45.441Z,102780.81
2022-12-05T15:07:22.423Z,102764.16
2022-12-05T15:09:57.102Z,102777.22
2022-12-05T15:12:30.929Z,102779.72
2022-12-05T15:15:30.454Z,102774.41
2022-12-05T15:18:09.945Z,102777.94
2022-12-05T15:20:50.292Z,102765.09
2022-12-05T15:23:47.018Z,102752.28
2022-12-05T15:26:45.015Z,102778.69
2022-12-05T15:29:11.060Z,102771.47
2022-12-05T15:31:52.028Z,102772.41
2022-12-05T15:34:44.351Z,102765.41
2022-12-05T15:37:27.845Z,102778.56
2022-12-05T15:40:21.347Z,102768.19
2022-12-05T15:42:51.359Z,102780.47
2022-12-05T15:45:26.554Z,102782.28
2022-12-05T15:47:58.376Z,102763.03
2022-12-05T15:50:34.859Z,102777.03
2022-12-05T15:53:16.228Z,102777.03
2022-12-05T15:56:00.479Z,102775.28
2022-12-05T15:58:30.169Z,102778.94
2022-12-05T16:01:03.203Z,102777.19
2022-12-05T16:03:57.702Z,102778.94
2022-12-05T16:06:55.049Z,102762.47
2022-12-05T16:09:29.214Z,102773.84
2022-12-05T16:12:00.634Z,102782.56
2022-12-05T16:17:21.617Z,102791.44
2022-12-05T16:19:49.825Z,102779.91
2022-12-05T16:22:17.244Z,102785.09
2022-12-05T16:25:08.730Z,102782.47
2022-12-05T16:27:37.423Z,102786.81
2022-12-05T16:30:15.476Z,102791.16
2022-12-05T16:32:44.793Z,102782.31
2022-12-05T16:35:51.105Z,102767.41
2022-12-05T16:38:18.208Z,102787.41
2022-12-05T16:40:53.448Z,102782.09
2022-12-05T16:43:41.115Z,102779.34
2022-12-05T16:46:14.966Z,102774.94
2022-12-05T16:48:50.309Z,102769.59
2022-12-05T16:51:26.425Z,102777.38
2022-12-05T16:53:55.589Z,102778.22
2022-12-05T16:56:33.595Z,102765.88
2022-12-05T16:59:06.438Z,102758.00
2022-12-05T17:01:38.702Z,102752.66
2022-12-05T17:04:06.671Z,102777.91
2022-12-05T17:06:33.676Z,102770.84
2022-12-05T17:09:00.820Z,102757.72
2022-12-05T17:11:31.379Z,102762.91
2022-12-05T17:13:59.753Z,102755.03
2022-12-05T17:16:28.411Z,102768.88
2022-12-05T17:18:59.211Z,102766.22
2022-12-05T17:21:30.179Z,102763.53
2022-12-05T17:23:57.167Z,102756.63
2022-12-05T17:26:25.170Z,102774.00
2022-12-05T17:28:53.390Z,102762.53
2022-12-05T17:31:23.084Z,102766.66
2022-12-05T17:33:52.358Z,102764.78
2022-12-05T17:36:23.211Z,102763.84
2022-12-05T17:38:50.735Z,102769.13
2022-12-05T17:41:20.644Z,102765.59
2022-12-05T17:43:48.407Z,102752.44
2022-12-05T17:46:21.314Z,102766.22
2022-12-05T17:48:50.622Z,102762.81
2022-12-05T17:51:19.388Z,102774.28
2022-12-05T17:53:47.814Z,102755.06
2022-12-05T17:56:15.830Z,102759.28
2022-12-05T17:58:43.196Z,102772.50
2022-12-05T18:01:19.887Z,102775.91
2022-12-05T18:03:48.348Z,102774.84
2022-12-05T18:06:15.550Z,102772.13
2022-12-05T18:08:45.204Z,102782.63
2022-12-05T18:11:13.900Z,102779.91
2022-12-05T18:13:41.183Z,102779.84
2022-12-05T18:16:08.726Z,102778.03
2022-12-05T18:18:35.894Z,102776.25
2022-12-05T18:21:07.910Z,102775.31
2022-12-05T18:23:36.811Z,102770.78
2022-12-05T18:26:08.445Z,102769.19
2022-12-05T18:28:41.353Z,102775.31
2022-12-05T18:31:17.800Z,102772.59
2022-12-05T18:33:46.842Z,102774.38
2022-12-05T18:36:20.961Z,102782.41
2022-12-05T18:38:56.505Z,102775.38
2022-12-05T18:41:26.687Z,102778.91
2022-12-05T18:43:54.155Z,102777.19
2022-12-05T18:46:24.852Z,102770.25
2022-12-05T18:48:51.900Z,102776.44
2022-12-05T18:51:23.906Z,102768.75
2022-12-05T18:53:54.064Z,102780.03
2022-12-05T18:56:34.971Z,102772.13
2022-12-05T18:59:05.685Z,102768.63
2022-12-05T19:01:35.896Z,102761.69
2022-12-05T19:04:05.334Z,102764.19
2022-12-05T19:06:36.714Z,102780.91
2022-12-05T19:09:11.749Z,102774.84
2022-12-05T19:11:47.183Z,102774.84
2022-12-05T19:14:16.570Z,102774.63
2022-12-05T19:16:43.754Z,102771.78
2022-12-05T19:19:13.848Z,102776.00
2022-12-05T19:21:41.404Z,102770.50
2022-12-05T19:24:11.233Z,102765.09
2022-12-05T19:26:38.472Z,102766.66
2022-12-05T19:29:06.358Z,102769.19
2022-12-05T19:31:33.688Z,102760.16
2022-12-05T19:34:03.164Z,102768.78
2022-12-05T19:36:35.917Z,102758.81
2022-12-05T19:39:09.557Z,102764.91
2022-12-05T19:41:37.320Z,102758.78
2022-12-05T19:44:05.023Z,102762.91
2022-12-05T19:46:34.742Z,102755.78
2022-12-05T19:49:07.408Z,102753.88
2022-12-05T19:51:37.622Z,102755.53
2022-12-05T19:54:06.674Z,102759.88
2022-12-05T19:56:35.485Z,102762.34
2022-12-05T19:59:03.266Z,102756.09
2022-12-05T20:01:41.313Z,102744.69
2022-12-05T20:04:12.861Z,102757.69
2022-12-05T20:06:43.915Z,102743.59
2022-12-05T20:09:13.259Z,102735.72
2022-12-05T20:11:43.853Z,102733.88
2022-12-05T20:14:13.025Z,102734.69
2022-12-05T20:16:40.943Z,102751.53
2022-12-05T20:19:08.103Z,102748.22
2022-12-05T20:21:36.373Z,102748.44
2022-12-05T20:24:05.162Z,102753.84
2022-12-05T20:26:35.720Z,102754.78
2022-12-05T20:29:03.906Z,102748.63
2022-12-05T20:31:34.149Z,102752.19
2022-12-05T20:34:02.656Z,102749.63
2022-12-05T20:36:32.267Z,102743.50
2022-12-05T20:39:08.521Z,102731.22
2022-12-05T20:41:36.258Z,102738.34
2022-12-05T20:44:07.101Z,102740.16
2022-12-05T20:46:35.926Z,102734.94
2022-12-05T20:49:03.797Z,102734.28
2022-12-05T20:51:34.308Z,102724.66
2022-12-05T20:54:03.377Z,102723.75
2022-12-05T20:56:32.784Z,102709.97
2022-12-05T20:59:06.152Z,102712.69
2022-12-05T21:01:37.276Z,102731.09
2022-12-05T21:04:10.817Z,102734.69
2022-12-05T21:06:43.476Z,102715.56
2022-12-05T21:09:19.938Z,102733.13
2022-12-05T21:11:50.036Z,102728.78
2022-12-05T21:14:17.650Z,102727.97
2022-12-05T21:16:50.303Z,102723.63
2022-12-05T21:19:19.483Z,102732.47
2022-12-05T21:21:47.113Z,102728.16
2022-12-05T21:24:14.163Z,102736.06
2022-12-05T21:26:43.431Z,102729.81
2022-12-05T21:29:12.894Z,102718.44
2022-12-05T21:31:43.758Z,102729.78
2022-12-05T21:34:22.604Z,102730.75
2022-12-05T21:37:10.621Z,102730.88
2022-12-05T21:39:38.479Z,102731.88
2022-12-05T21:42:07.071Z,102721.44
2022-12-05T21:44:36.345Z,102726.78
2022-12-05T21:47:03.905Z,102713.84
2022-12-05T21:49:32.507Z,102720.00
2022-12-05T21:52:00.063Z,102712.13
2022-12-05T21:54:27.267Z,102715.72
2022-12-05T21:56:54.814Z,102716.72
2022-12-05T21:59:23.263Z,102716.78
2022-12-05T22:01:50.828Z,102713.38
2022-12-05T22:04:18.367Z,102709.19
2022-12-05T22:06:45.636Z,102713.47
2022-12-05T22:09:13.014Z,102706.53
2022-12-05T22:11:40.532Z,102698.84
2022-12-05T22:14:08.817Z,102713.72
2022-12-05T22:16:36.536Z,102723.50
2022-12-05T22:19:04.283Z,102722.66
2022-12-05T22:21:34.389Z,102723.59
2022-12-05T22:24:01.807Z,102724.59
2022-12-05T22:26:29.220Z,102708.94
2022-12-05T22:28:57.037Z,102718.53
2022-12-05T22:31:25.297Z,102710.66
2022-12-05T22:33:53.562Z,102709.00
2022-12-05T22:36:21.094Z,102711.72
2022-12-05T22:38:49.239Z,102694.31
2022-12-05T22:41:21.850Z,102705.66
2022-12-05T22:43:53.948Z,102703.97
2022-12-05T22:46:21.651Z,102706.66
2022-12-05T22:48:50.447Z,102698.81
2022-12-05T22:51:19.166Z,102703.22
2022-12-05T22:53:46.840Z,102701.53
2022-12-05T22:56:18.602Z,102709.50
2022-12-05T22:58:46.990Z,102703.41
2022-12-05T23:01:20.348Z,102690.25
2022-12-05T23:03:50.031Z,102687.66
2022-12-05T23:06:18.750Z,102687.72
2022-12-05T23:08:50.281Z,102675.59
2022-12-05T23:11:20.590Z,102683.41
2022-12-05T23:13:49.013Z,102675.53
2022-12-05T23:16:23.884Z,102666.91
2022-12-05T23:18:53.920Z,102681.75
2022-12-05T23:21:24.918Z,102681.81
2022-12-05T23:23:54.513Z,102668.78
2022-12-05T23:26:24.075Z,102678.41
2022-12-05T23:28:52.008Z,102662.75
2022-12-05T23:31:19.849Z,102676.75
2022-12-05T23:33:50.871Z,102674.97
2022-12-05T23:36:19.816Z,102678.53
2022-12-05T23:38:47.935Z,102669.81
2022-12-05T23:41:19.828Z,102663.84
2022-12-05T23:43:47.966Z,102662.97
2022-12-05T23:46:17.313Z,102676.09
2022-12-05T23:48:44.768Z,102679.63
2022-12-05T23:51:14.778Z,102671.75
2022-12-05T23:53:43.707Z,102662.25
2022-12-05T23:56:19.845Z,102675.38
2022-12-05T23:58:47.040Z,102670.09
